sensor_id;sensor_type;location;lat;lon;timestamp;pressure;altitude;pressure_sealevel;temperature;humidity
21395;BME280;10858;42.714;23.180;2022-10-13T00:01:36;95166.28;;;8.36;86.24
21395;BME280;10858;42.714;23.180;2022-10-13T00:04:02;95166.63;;;8.31;86.41
21395;BME280;10858;42.714;23.180;2022-10-13T00:06:28;95166.06;;;8.26;87.06
21395;BME280;10858;42.714;23.180;2022-10-13T00:08:55;95171.69;;;8.34;86.61
21395;BME280;10858;42.714;23.180;2022-10-13T00:11:27;95166.94;;;8.39;85.98
21395;BME280;10858;42.714;23.180;2022-10-13T00:13:59;95163.03;;;8.45;85.51
21395;BME280;10858;42.714;23.180;2022-10-13T00:16:26;95164.19;;;8.41;86.19
21395;BME280;10858;42.714;23.180;2022-10-13T00:18:54;95161.75;;;8.38;86.12
21395;BME280;10858;42.714;23.180;2022-10-13T00:21:24;95162.72;;;8.37;86.21
21395;BME280;10858;42.714;23.180;2022-10-13T00:23:52;95152.84;;;8.26;85.98
21395;BME280;10858;42.714;23.180;2022-10-13T00:26:20;95150.34;;;8.11;85.67
21395;BME280;10858;42.714;23.180;2022-10-13T00:28:46;95153.19;;;8.08;85.79
21395;BME280;10858;42.714;23.180;2022-10-13T00:31:21;95153.41;;;8.05;86.11
21395;BME280;10858;42.714;23.180;2022-10-13T00:33:48;95145.03;;;7.98;85.77
21395;BME280;10858;42.714;23.180;2022-10-13T00:36:15;95145.25;;;7.95;85.84
21395;BME280;10858;42.714;23.180;2022-10-13T00:38:41;95146.28;;;7.93;86.48
21395;BME280;10858;42.714;23.180;2022-10-13T00:41:09;95140.13;;;7.92;86.44
21395;BME280;10858;42.714;23.180;2022-10-13T00:43:52;95136.16;;;7.99;86.13
21395;BME280;10858;42.714;23.180;2022-10-13T00:46:19;95140.63;;;8.11;85.58
21395;BME280;10858;42.714;23.180;2022-10-13T00:48:46;95139.16;;;8.20;85.12
21395;BME280;10858;42.714;23.180;2022-10-13T00:51:16;95138.00;;;8.11;85.47
21395;BME280;10858;42.714;23.180;2022-10-13T00:53:44;95146.66;;;8.13;85.67
21395;BME280;10858;42.714;23.180;2022-10-13T00:56:12;95138.97;;;8.23;85.29
21395;BME280;10858;42.714;23.180;2022-10-13T00:58:40;95136.28;;;8.37;85.05
21395;BME280;10858;42.714;23.180;2022-10-13T01:01:07;95126.31;;;8.40;84.76
21395;BME280;10858;42.714;23.180;2022-10-13T01:03:34;95129.06;;;8.26;85.13
21395;BME280;10858;42.714;23.180;2022-10-13T01:06:02;95132.16;;;8.33;85.77
21395;BME280;10858;42.714;23.180;2022-10-13T01:08:30;95129.81;;;8.28;85.58
21395;BME280;10858;42.714;23.180;2022-10-13T01:33:55;95134.91;;;8.05;86.10
21395;BME280;10858;42.714;23.180;2022-10-13T01:41:56;95141.91;;;8.18;85.71
21395;BME280;10858;42.714;23.180;2022-10-13T01:44:30;95140.63;;;8.11;85.82
21395;BME280;10858;42.714;23.180;2022-10-13T01:47:00;95133.78;;;8.21;85.31
21395;BME280;10858;42.714;23.180;2022-10-13T01:49:31;95136.09;;;8.13;85.41
21395;BME280;10858;42.714;23.180;2022-10-13T01:52:03;95134.53;;;8.23;84.95
21395;BME280;10858;42.714;23.180;2022-10-13T01:54:32;95133.31;;;8.29;85.06
21395;BME280;10858;42.714;23.180;2022-10-13T01:56:58;95125.31;;;8.16;85.02
21395;BME280;10858;42.714;23.180;2022-10-13T01:59:25;95128.03;;;8.02;85.56
21395;BME280;10858;42.714;23.180;2022-10-13T02:02:11;95125.38;;;8.02;86.36
21395;BME280;10858;42.714;23.180;2022-10-13T02:07:48;95123.75;;;7.87;86.21
21395;BME280;10858;42.714;23.180;2022-10-13T02:10:39;95116.03;;;7.84;86.12
21395;BME280;10858;42.714;23.180;2022-10-13T02:13:11;95119.63;;;7.83;85.70
21395;BME280;10858;42.714;23.180;2022-10-13T02:15:48;95123.03;;;7.85;86.23
21395;BME280;10858;42.714;23.180;2022-10-13T02:18:19;95116.38;;;7.92;87.24
21395;BME280;10858;42.714;23.180;2022-10-13T02:20:47;95113.66;;;8.06;86.90
21395;BME280;10858;42.714;23.180;2022-10-13T02:23:16;95117.78;;;8.10;86.50
21395;BME280;10858;42.714;23.180;2022-10-13T02:25:44;95115.59;;;8.17;86.53
21395;BME280;10858;42.714;23.180;2022-10-13T02:28:13;95113.53;;;8.34;85.31
21395;BME280;10858;42.714;23.180;2022-10-13T02:30:40;95109.78;;;8.24;86.55
21395;BME280;10858;42.714;23.180;2022-10-13T02:33:07;95105.91;;;8.30;87.33
21395;BME280;10858;42.714;23.180;2022-10-13T02:35:34;95103.81;;;8.47;87.50
21395;BME280;10858;42.714;23.180;2022-10-13T02:38:00;95096.81;;;8.84;86.04
21395;BME280;10858;42.714;23.180;2022-10-13T02:40:27;95092.56;;;8.94;84.75
21395;BME280;10858;42.714;23.180;2022-10-13T02:42:53;95098.63;;;8.84;84.91
21395;BME280;10858;42.714;23.180;2022-10-13T02:45:19;95089.09;;;8.69;85.42
21395;BME280;10858;42.714;23.180;2022-10-13T02:47:45;95091.34;;;8.49;85.74
21395;BME280;10858;42.714;23.180;2022-10-13T02:50:12;95091.34;;;8.49;85.69
21395;BME280;10858;42.714;23.180;2022-10-13T02:52:38;95094.41;;;8.69;84.74
21395;BME280;10858;42.714;23.180;2022-10-13T02:55:05;95089.09;;;8.69;84.33
21395;BME280;10858;42.714;23.180;2022-10-13T02:57:31;95094.41;;;8.69;84.54
21395;BME280;10858;42.714;23.180;2022-10-13T02:59:57;95098.50;;;8.60;85.45
21395;BME280;10858;42.714;23.180;2022-10-13T03:02:26;95095.03;;;8.60;85.92
21395;BME280;10858;42.714;23.180;2022-10-13T03:04:52;95091.44;;;8.73;86.11
21395;BME280;10858;42.714;23.180;2022-10-13T03:07:19;95092.78;;;8.91;86.16
21395;BME280;10858;42.714;23.180;2022-10-13T03:09:45;95088.94;;;9.08;85.69
21395;BME280;10858;42.714;23.180;2022-10-13T03:12:11;95096.78;;;9.09;85.74
21395;BME280;10858;42.714;23.180;2022-10-13T03:14:37;95098.75;;;9.31;85.80
21395;BME280;10858;42.714;23.180;2022-10-13T03:17:04;95101.44;;;9.42;85.81
21395;BME280;10858;42.714;23.180;2022-10-13T03:19:30;95094.81;;;9.60;85.77
21395;BME280;10858;42.714;23.180;2022-10-13T03:21:57;95105.41;;;9.60;85.88
21395;BME280;10858;42.714;23.180;2022-10-13T03:24:23;95100.88;;;9.86;86.16
21395;BME280;10858;42.714;23.180;2022-10-13T03:26:49;95103.69;;;10.19;85.43
21395;BME280;10858;42.714;23.180;2022-10-13T03:29:16;95106.66;;;10.14;85.15
21395;BME280;10858;42.714;23.180;2022-10-13T03:31:43;95104.13;;;9.89;84.37
21395;BME280;10858;42.714;23.180;2022-10-13T03:34:10;95104.25;;;9.88;84.97
21395;BME280;10858;42.714;23.180;2022-10-13T03:36:37;95099.47;;;9.69;84.94
21395;BME280;10858;42.714;23.180;2022-10-13T03:39:04;95109.81;;;9.72;85.10
21395;BME280;10858;42.714;23.180;2022-10-13T03:41:30;95111.00;;;9.68;85.95
21395;BME280;10858;42.714;23.180;2022-10-13T03:43:56;95107.53;;;9.68;85.95
21395;BME280;10858;42.714;23.180;2022-10-13T03:46:26;95104.00;;;9.91;86.01
21395;BME280;10858;42.714;23.180;2022-10-13T03:48:53;95105.06;;;9.88;85.72
21395;BME280;10858;42.714;23.180;2022-10-13T03:51:21;95097.41;;;9.96;85.70
21395;BME280;10858;42.714;23.180;2022-10-13T03:53:49;95102.94;;;9.93;86.01
21395;BME280;10858;42.714;23.180;2022-10-13T03:56:18;95099.78;;;9.88;86.92
21395;BME280;10858;42.714;23.180;2022-10-13T03:58:45;95095.47;;;9.87;87.37
21395;BME280;10858;42.714;23.180;2022-10-13T04:01:12;95090.88;;;9.89;87.47
21395;BME280;10858;42.714;23.180;2022-10-13T04:03:39;95097.50;;;9.84;88.22
21395;BME280;10858;42.714;23.180;2022-10-13T04:06:06;95095.91;;;9.81;88.58
21395;BME280;10858;42.714;23.180;2022-10-13T04:08:33;95096.41;;;9.86;88.56
21395;BME280;10858;42.714;23.180;2022-10-13T04:11:01;95095.50;;;9.98;88.30
21395;BME280;10858;42.714;23.180;2022-10-13T04:13:27;95087.06;;;9.93;88.03
21395;BME280;10858;42.714;23.180;2022-10-13T04:15:53;95085.00;;;9.97;88.31
21395;BME280;10858;42.714;23.180;2022-10-13T04:18:19;95083.59;;;10.04;87.89
21395;BME280;10858;42.714;23.180;2022-10-13T04:20:46;95085.47;;;10.14;87.15
21395;BME280;10858;42.714;23.180;2022-10-13T04:23:12;95082.75;;;10.03;87.33
21395;BME280;10858;42.714;23.180;2022-10-13T04:25:39;95086.44;;;9.90;87.64
21395;BME280;10858;42.714;23.180;2022-10-13T04:28:06;95086.31;;;9.91;87.28
21395;BME280;10858;42.714;23.180;2022-10-13T04:30:36;95091.34;;;9.83;87.91
21395;BME280;10858;42.714;23.180;2022-10-13T04:33:02;95081.75;;;9.93;87.64
21395;BME280;10858;42.714;23.180;2022-10-13T04:35:29;95081.97;;;9.90;87.34
21395;BME280;10858;42.714;23.180;2022-10-13T04:37:55;95085.59;;;9.89;87.56
21395;BME280;10858;42.714;23.180;2022-10-13T04:40:25;95086.78;;;9.85;87.69
21395;BME280;10858;42.714;23.180;2022-10-13T04:42:51;95085.53;;;10.02;87.31
21395;BME280;10858;42.714;23.180;2022-10-13T04:45:17;95085.59;;;9.89;87.41
21395;BME280;10858;42.714;23.180;2022-10-13T04:47:44;95081.91;;;10.03;87.41
21395;BME280;10858;42.714;23.180;2022-10-13T04:50:10;95083.81;;;10.01;87.22
21395;BME280;10858;42.714;23.180;2022-10-13T04:52:37;95093.81;;;9.97;87.42
21395;BME280;10858;42.714;23.180;2022-10-13T04:55:04;95091.03;;;10.22;87.17
21395;BME280;10858;42.714;23.180;2022-10-13T04:57:30;95094.00;;;10.42;86.23
21395;BME280;10858;42.714;23.180;2022-10-13T04:59:56;95094.94;;;10.30;86.51
21395;BME280;10858;42.714;23.180;2022-10-13T05:02:22;95097.59;;;10.41;86.85
21395;BME280;10858;42.714;23.180;2022-10-13T05:04:49;95096.91;;;10.50;86.37
21395;BME280;10858;42.714;23.180;2022-10-13T05:07:15;95099.19;;;10.54;85.78
21395;BME280;10858;42.714;23.180;2022-10-13T05:09:41;95095.47;;;10.57;86.15
21395;BME280;10858;42.714;23.180;2022-10-13T05:12:07;95105.59;;;10.52;85.76
21395;BME280;10858;42.714;23.180;2022-10-13T05:14:34;95103.66;;;10.54;86.20
21395;BME280;10858;42.714;23.180;2022-10-13T05:17:00;95113.03;;;10.47;86.53
21395;BME280;10858;42.714;23.180;2022-10-13T05:19:27;95103.88;;;10.51;86.53
21395;BME280;10858;42.714;23.180;2022-10-13T05:21:53;95106.09;;;10.79;86.68
21395;BME280;10858;42.714;23.180;2022-10-13T05:24:19;95107.94;;;11.00;86.27
21395;BME280;10858;42.714;23.180;2022-10-13T05:26:56;95104.19;;;11.25;85.33
21395;BME280;10858;42.714;23.180;2022-10-13T05:29:22;95107.59;;;11.38;85.45
21395;BME280;10858;42.714;23.180;2022-10-13T05:31:48;95110.50;;;11.24;84.64
21395;BME280;10858;42.714;23.180;2022-10-13T05:34:14;95119.91;;;11.28;85.49
21395;BME280;10858;42.714;23.180;2022-10-13T05:36:41;95128.31;;;11.55;85.84
21395;BME280;10858;42.714;23.180;2022-10-13T05:39:08;95134.13;;;11.71;85.33
21395;BME280;10858;42.714;23.180;2022-10-13T05:41:34;95136.25;;;12.00;85.52
21395;BME280;10858;42.714;23.180;2022-10-13T05:44:03;95138.97;;;12.20;83.82
21395;BME280;10858;42.714;23.180;2022-10-13T05:46:29;95146.66;;;12.23;83.29
21395;BME280;10858;42.714;23.180;2022-10-13T05:48:56;95145.09;;;12.21;83.06
21395;BME280;10858;42.714;23.180;2022-10-13T05:51:35;95149.41;;;12.33;83.42
21395;BME280;10858;42.714;23.180;2022-10-13T05:54:09;95151.09;;;12.02;83.70
21395;BME280;10858;42.714;23.180;2022-10-13T05:56:50;95151.97;;;11.91;84.51
21395;BME280;10858;42.714;23.180;2022-10-13T05:59:19;95144.44;;;12.08;84.24
21395;BME280;10858;42.714;23.180;2022-10-13T06:01:46;95145.31;;;12.60;85.25
21395;BME280;10858;42.714;23.180;2022-10-13T06:04:17;95138.81;;;12.74;82.41
21395;BME280;10858;42.714;23.180;2022-10-13T06:06:45;95145.69;;;12.56;82.81
21395;BME280;10858;42.714;23.180;2022-10-13T06:09:12;95152.44;;;12.60;81.88
21395;BME280;10858;42.714;23.180;2022-10-13T06:11:38;95141.44;;;12.64;81.50
21395;BME280;10858;42.714;23.180;2022-10-13T06:14:04;95138.44;;;12.58;81.02
21395;BME280;10858;42.714;23.180;2022-10-13T06:16:31;95150.16;;;12.55;81.77
21395;BME280;10858;42.714;23.180;2022-10-13T06:18:59;95146.72;;;12.85;82.64
21395;BME280;10858;42.714;23.180;2022-10-13T06:21:25;95153.66;;;13.08;81.89
21395;BME280;10858;42.714;23.180;2022-10-13T06:23:51;95150.66;;;13.22;82.94
21395;BME280;10858;42.714;23.180;2022-10-13T06:26:17;95139.28;;;13.50;80.83
21395;BME280;10858;42.714;23.180;2022-10-13T06:28:43;95146.47;;;13.69;82.09
21395;BME280;10858;42.714;23.180;2022-10-13T06:31:09;95146.22;;;13.62;81.56
21395;BME280;10858;42.714;23.180;2022-10-13T06:33:36;95142.91;;;13.49;79.62
21395;BME280;10858;42.714;23.180;2022-10-13T06:36:05;95139.88;;;13.33;80.89
21395;BME280;10858;42.714;23.180;2022-10-13T06:38:32;95144.88;;;13.47;80.90
21395;BME280;10858;42.714;23.180;2022-10-13T06:41:00;95143.94;;;13.58;77.89
21395;BME280;10858;42.714;23.180;2022-10-13T06:43:27;95143.91;;;13.48;79.51
21395;BME280;10858;42.714;23.180;2022-10-13T06:45:56;95146.44;;;13.50;78.53
21395;BME280;10858;42.714;23.180;2022-10-13T06:48:22;95138.03;;;13.24;78.46
21395;BME280;10858;42.714;23.180;2022-10-13T06:50:49;95143.63;;;13.21;80.12
21395;BME280;10858;42.714;23.180;2022-10-13T06:53:15;95143.56;;;13.12;80.48
21395;BME280;10858;42.714;23.180;2022-10-13T06:55:41;95137.94;;;13.35;80.93
21395;BME280;10858;42.714;23.180;2022-10-13T06:58:09;95138.41;;;13.40;79.29
21395;BME280;10858;42.714;23.180;2022-10-13T07:00:36;95141.25;;;13.48;81.55
21395;BME280;10858;42.714;23.180;2022-10-13T07:03:02;95138.28;;;13.91;80.37
21395;BME280;10858;42.714;23.180;2022-10-13T07:05:29;95131.91;;;14.32;78.76
21395;BME280;10858;42.714;23.180;2022-10-13T07:07:56;95133.88;;;14.49;76.57
21395;BME280;10858;42.714;23.180;2022-10-13T07:10:22;95130.25;;;14.50;77.47
21395;BME280;10858;42.714;23.180;2022-10-13T07:12:48;95127.69;;;14.39;73.90
21395;BME280;10858;42.714;23.180;2022-10-13T07:15:14;95126.03;;;14.67;74.82
21395;BME280;10858;42.714;23.180;2022-10-13T07:17:40;95132.59;;;14.91;73.92
21395;BME280;10858;42.714;23.180;2022-10-13T07:20:07;95136.94;;;15.58;73.32
21395;BME280;10858;42.714;23.180;2022-10-13T07:22:33;95138.50;;;16.77;73.42
21395;BME280;10858;42.714;23.180;2022-10-13T07:24:59;95139.91;;;17.07;68.90
21395;BME280;10858;42.714;23.180;2022-10-13T07:27:27;95136.72;;;17.80;65.61
21395;BME280;10858;42.714;23.180;2022-10-13T07:29:53;95141.41;;;17.27;66.63
21395;BME280;10858;42.714;23.180;2022-10-13T07:32:19;95139.94;;;17.58;66.00
21395;BME280;10858;42.714;23.180;2022-10-13T07:34:45;95132.31;;;17.45;65.40
21395;BME280;10858;42.714;23.180;2022-10-13T07:37:11;95132.50;;;17.26;63.95
21395;BME280;10858;42.714;23.180;2022-10-13T07:39:37;95128.41;;;17.40;64.80
21395;BME280;10858;42.714;23.180;2022-10-13T07:42:04;95133.84;;;17.05;65.68
21395;BME280;10858;42.714;23.180;2022-10-13T07:44:30;95131.66;;;16.82;66.33
21395;BME280;10858;42.714;23.180;2022-10-13T07:46:56;95128.00;;;16.66;67.72
21395;BME280;10858;42.714;23.180;2022-10-13T07:49:22;95131.28;;;16.77;67.38
21395;BME280;10858;42.714;23.180;2022-10-13T07:51:48;95132.72;;;16.37;67.21
21395;BME280;10858;42.714;23.180;2022-10-13T07:54:14;95129.03;;;15.93;68.40
21395;BME280;10858;42.714;23.180;2022-10-13T07:56:43;95129.69;;;16.04;69.08
21395;BME280;10858;42.714;23.180;2022-10-13T07:59:10;95130.72;;;15.94;68.47
21395;BME280;10858;42.714;23.180;2022-10-13T08:01:36;95125.28;;;16.13;68.08
21395;BME280;10858;42.714;23.180;2022-10-13T08:04:02;95122.59;;;15.86;68.65
21395;BME280;10858;42.714;23.180;2022-10-13T08:06:29;95123.19;;;15.80;69.56
21395;BME280;10858;42.714;23.180;2022-10-13T08:08:55;95127.59;;;15.98;68.31
21395;BME280;10858;42.714;23.180;2022-10-13T08:11:22;95129.03;;;15.66;69.30
21395;BME280;10858;42.714;23.180;2022-10-13T08:13:50;95124.84;;;15.90;67.42
21395;BME280;10858;42.714;23.180;2022-10-13T08:16:17;95120.59;;;16.15;67.39
21395;BME280;10858;42.714;23.180;2022-10-13T08:18:44;95122.59;;;16.48;65.09
21395;BME280;10858;42.714;23.180;2022-10-13T08:21:16;95120.66;;;16.50;66.53
21395;BME280;10858;42.714;23.180;2022-10-13T08:23:43;95114.50;;;16.23;66.95
21395;BME280;10858;42.714;23.180;2022-10-13T08:26:19;95125.19;;;16.23;66.17
21395;BME280;10858;42.714;23.180;2022-10-13T08:28:46;95122.00;;;16.37;66.89
21395;BME280;10858;42.714;23.180;2022-10-13T08:31:13;95118.13;;;16.66;65.85
21395;BME280;10858;42.714;23.180;2022-10-13T08:33:39;95118.25;;;16.82;63.52
21395;BME280;10858;42.714;23.180;2022-10-13T08:36:07;95110.59;;;16.87;62.71
21395;BME280;10858;42.714;23.180;2022-10-13T08:38:34;95113.66;;;17.44;63.09
21395;BME280;10858;42.714;23.180;2022-10-13T08:41:00;95111.41;;;17.82;59.99
21395;BME280;10858;42.714;23.180;2022-10-13T08:43:26;95103.13;;;18.18;60.99
21395;BME280;10858;42.714;23.180;2022-10-13T08:45:58;95098.25;;;18.79;57.69
21395;BME280;10858;42.714;23.180;2022-10-13T08:48:29;95100.94;;;18.95;55.34
21395;BME280;10858;42.714;23.180;2022-10-13T08:51:01;95092.50;;;18.66;56.99
21395;BME280;10858;42.714;23.180;2022-10-13T08:53:34;95088.66;;;18.77;55.69
21395;BME280;10858;42.714;23.180;2022-10-13T08:58:41;95075.56;;;18.65;55.03
21395;BME280;10858;42.714;23.180;2022-10-13T09:03:54;95082.78;;;18.73;55.10
21395;BME280;10858;42.714;23.180;2022-10-13T09:06:26;95077.56;;;18.96;55.21
21395;BME280;10858;42.714;23.180;2022-10-13T09:08:58;95069.09;;;19.55;53.32
21395;BME280;10858;42.714;23.180;2022-10-13T09:11:36;95073.63;;;19.55;56.35
21395;BME280;10858;42.714;23.180;2022-10-13T09:14:06;95070.31;;;19.91;53.96
21395;BME280;10858;42.714;23.180;2022-10-13T09:16:39;95070.84;;;20.17;51.68
21395;BME280;10858;42.714;23.180;2022-10-13T09:19:26;95067.16;;;19.80;56.33
21395;BME280;10858;42.714;23.180;2022-10-13T09:22:12;95057.84;;;19.90;52.98
21395;BME280;10858;42.714;23.180;2022-10-13T09:24:41;95060.59;;;20.89;51.22
21395;BME280;10858;42.714;23.180;2022-10-13T09:27:13;95052.41;;;21.05;49.75
21395;BME280;10858;42.714;23.180;2022-10-13T09:29:40;95056.94;;;20.37;50.61
21395;BME280;10858;42.714;23.180;2022-10-13T09:32:27;95059.34;;;20.31;51.62
21395;BME280;10858;42.714;23.180;2022-10-13T09:35:19;95052.44;;;20.60;48.72
21395;BME280;10858;42.714;23.180;2022-10-13T09:40:28;95041.00;;;20.95;48.55
21395;BME280;10858;42.714;23.180;2022-10-13T09:42:59;95038.75;;;21.21;48.34
21395;BME280;10858;42.714;23.180;2022-10-13T09:45:26;95035.09;;;21.80;46.19
21395;BME280;10858;42.714;23.180;2022-10-13T09:48:03;95033.00;;;22.26;46.81
21395;BME280;10858;42.714;23.180;2022-10-13T09:50:33;95033.44;;;22.51;44.50
21395;BME280;10858;42.714;23.180;2022-10-13T09:53:30;95028.75;;;22.74;44.83
21395;BME280;10858;42.714;23.180;2022-10-13T09:56:40;95024.78;;;22.98;43.39
21395;BME280;10858;42.714;23.180;2022-10-13T10:02:00;95017.63;;;22.48;45.71
21395;BME280;10858;42.714;23.180;2022-10-13T10:04:37;95021.53;;;22.24;45.33
21395;BME280;10858;42.714;23.180;2022-10-13T10:07:14;95014.97;;;21.83;46.81
21395;BME280;10858;42.714;23.180;2022-10-13T10:09:53;95016.09;;;21.88;45.03
21395;BME280;10858;42.714;23.180;2022-10-13T10:12:22;95004.63;;;21.57;46.99
21395;BME280;10858;42.714;23.180;2022-10-13T10:14:52;94999.34;;;22.50;46.29
21395;BME280;10858;42.714;23.180;2022-10-13T10:17:32;94996.22;;;22.67;43.31
21395;BME280;10858;42.714;23.180;2022-10-13T10:28:42;94991.72;;;22.39;44.02
21395;BME280;10858;42.714;23.180;2022-10-13T10:36:22;94985.34;;;24.06;40.58
21395;BME280;10858;42.714;23.180;2022-10-13T10:44:30;94966.47;;;23.85;41.33
21395;BME280;10858;42.714;23.180;2022-10-13T10:47:04;94965.72;;;23.63;42.24
21395;BME280;10858;42.714;23.180;2022-10-13T10:49:34;94952.66;;;24.33;41.41
21395;BME280;10858;42.714;23.180;2022-10-13T10:52:07;94953.94;;;24.44;39.61
21395;BME280;10858;42.714;23.180;2022-10-13T10:54:50;94955.69;;;23.57;40.11
21395;BME280;10858;42.714;23.180;2022-10-13T11:00:15;94948.06;;;23.74;42.49
21395;BME280;10858;42.714;23.180;2022-10-13T11:03:08;94946.06;;;23.89;41.04
21395;BME280;10858;42.714;23.180;2022-10-13T11:05:57;94933.06;;;23.78;40.65
21395;BME280;10858;42.714;23.180;2022-10-13T11:13:55;94928.44;;;23.72;40.53
21395;BME280;10858;42.714;23.180;2022-10-13T11:19:32;94934.13;;;23.77;40.25
21395;BME280;10858;42.714;23.180;2022-10-13T11:46:04;94873.38;;;24.12;39.13
21395;BME280;10858;42.714;23.180;2022-10-13T11:56:48;94868.38;;;26.28;35.62
21395;BME280;10858;42.714;23.180;2022-10-13T11:59:35;94861.09;;;25.78;34.82
21395;BME280;10858;42.714;23.180;2022-10-13T12:04:38;94863.56;;;26.55;35.39
21395;BME280;10858;42.714;23.180;2022-10-13T12:07:07;94861.84;;;25.91;35.60
21395;BME280;10858;42.714;23.180;2022-10-13T12:09:51;94852.47;;;25.23;37.42
21395;BME280;10858;42.714;23.180;2022-10-13T12:12:21;94854.25;;;24.79;38.42
21395;BME280;10858;42.714;23.180;2022-10-13T12:14:52;94853.38;;;24.52;37.45
21395;BME280;10858;42.714;23.180;2022-10-13T12:17:33;94853.19;;;24.73;36.88
21395;BME280;10858;42.714;23.180;2022-10-13T12:20:25;94854.38;;;25.16;38.24
21395;BME280;10858;42.714;23.180;2022-10-13T12:22:53;94845.59;;;25.85;34.40
21395;BME280;10858;42.714;23.180;2022-10-13T12:25:26;94852.69;;;25.79;34.94
21395;BME280;10858;42.714;23.180;2022-10-13T12:27:55;94853.59;;;25.73;37.54
21395;BME280;10858;42.714;23.180;2022-10-13T12:32:56;94846.38;;;25.48;34.64
21395;BME280;10858;42.714;23.180;2022-10-13T12:35:30;94840.31;;;25.46;35.47
21395;BME280;10858;42.714;23.180;2022-10-13T12:37:59;94843.13;;;25.13;35.20
21395;BME280;10858;42.714;23.180;2022-10-13T12:40:27;94833.50;;;25.74;35.85
21395;BME280;10858;42.714;23.180;2022-10-13T12:42:54;94828.28;;;25.73;35.42
21395;BME280;10858;42.714;23.180;2022-10-13T12:45:23;94831.66;;;25.62;35.45
21395;BME280;10858;42.714;23.180;2022-10-13T12:47:53;94823.09;;;26.02;34.43
21395;BME280;10858;42.714;23.180;2022-10-13T12:52:55;94823.19;;;25.39;35.81
21395;BME280;10858;42.714;23.180;2022-10-13T12:55:22;94826.03;;;24.54;36.77
21395;BME280;10858;42.714;23.180;2022-10-13T12:57:50;94817.88;;;24.47;37.04
21395;BME280;10858;42.714;23.180;2022-10-13T13:00:24;94818.75;;;24.28;39.00
21395;BME280;10858;42.714;23.180;2022-10-13T13:03:03;94826.25;;;24.45;37.45
21395;BME280;10858;42.714;23.180;2022-10-13T13:05:40;94817.88;;;24.08;40.65
21395;BME280;10858;42.714;23.180;2022-10-13T13:08:26;94806.66;;;24.11;38.63
21395;BME280;10858;42.714;23.180;2022-10-13T13:11:02;94808.94;;;24.20;37.85
21395;BME280;10858;42.714;23.180;2022-10-13T13:13:28;94804.97;;;24.23;37.14
21395;BME280;10858;42.714;23.180;2022-10-13T13:16:13;94807.50;;;24.31;37.29
21395;BME280;10858;42.714;23.180;2022-10-13T13:18:44;94805.41;;;24.26;36.49
21395;BME280;10858;42.714;23.180;2022-10-13T13:21:14;94808.25;;;23.99;36.87
21395;BME280;10858;42.714;23.180;2022-10-13T13:23:42;94805.38;;;24.07;36.38
21395;BME280;10858;42.714;23.180;2022-10-13T13:26:20;94804.09;;;23.96;37.41
21395;BME280;10858;42.714;23.180;2022-10-13T13:28:49;94793.63;;;23.93;37.98
21395;BME280;10858;42.714;23.180;2022-10-13T13:31:20;94798.72;;;24.03;37.86
21395;BME280;10858;42.714;23.180;2022-10-13T13:33:47;94799.91;;;23.94;38.43
21395;BME280;10858;42.714;23.180;2022-10-13T13:36:21;94801.00;;;24.12;36.75
21395;BME280;10858;42.714;23.180;2022-10-13T13:38:48;94805.41;;;24.33;38.27
21395;BME280;10858;42.714;23.180;2022-10-13T13:41:16;94802.69;;;24.26;36.62
21395;BME280;10858;42.714;23.180;2022-10-13T13:43:42;94805.56;;;24.05;38.03
21395;BME280;10858;42.714;23.180;2022-10-13T13:46:21;94799.53;;;24.10;38.62
21395;BME280;10858;42.714;23.180;2022-10-13T13:48:49;94797.13;;;23.54;40.67
21395;BME280;10858;42.714;23.180;2022-10-13T13:51:15;94791.97;;;23.73;41.52
21395;BME280;10858;42.714;23.180;2022-10-13T13:53:42;94799.53;;;24.10;39.77
21395;BME280;10858;42.714;23.180;2022-10-13T13:56:13;94787.38;;;23.80;38.88
21395;BME280;10858;42.714;23.180;2022-10-13T13:58:39;94779.84;;;23.62;37.89
21395;BME280;10858;42.714;23.180;2022-10-13T14:01:06;94789.69;;;23.22;38.57
21395;BME280;10858;42.714;23.180;2022-10-13T14:03:32;94788.91;;;23.35;38.76
21395;BME280;10858;42.714;23.180;2022-10-13T14:05:58;94790.03;;;23.06;40.04
21395;BME280;10858;42.714;23.180;2022-10-13T14:08:24;94790.28;;;22.77;43.16
21395;BME280;10858;42.714;23.180;2022-10-13T14:10:50;94784.84;;;22.77;45.05
21395;BME280;10858;42.714;23.180;2022-10-13T14:13:17;94782.72;;;22.66;43.23
21395;BME280;10858;42.714;23.180;2022-10-13T14:15:43;94780.09;;;22.51;44.47
21395;BME280;10858;42.714;23.180;2022-10-13T14:18:09;94786.94;;;22.20;46.08
21395;BME280;10858;42.714;23.180;2022-10-13T14:20:40;94773.31;;;22.07;43.76
21395;BME280;10858;42.714;23.180;2022-10-13T14:23:07;94781.94;;;21.95;43.62
21395;BME280;10858;42.714;23.180;2022-10-13T14:25:33;94772.31;;;21.86;44.39
21395;BME280;10858;42.714;23.180;2022-10-13T14:27:59;94772.81;;;21.75;46.38
21395;BME280;10858;42.714;23.180;2022-10-13T14:30:25;94776.91;;;21.71;48.17
21395;BME280;10858;42.714;23.180;2022-10-13T14:32:51;94769.84;;;21.49;49.39
21395;BME280;10858;42.714;23.180;2022-10-13T14:35:17;94777.19;;;21.20;51.55
21395;BME280;10858;42.714;23.180;2022-10-13T14:37:44;94772.53;;;20.99;51.58
21395;BME280;10858;42.714;23.180;2022-10-13T14:40:10;94774.16;;;20.79;52.92
21395;BME280;10858;42.714;23.180;2022-10-13T14:42:36;94776.50;;;20.67;53.23
21395;BME280;10858;42.714;23.180;2022-10-13T14:45:04;94776.59;;;20.59;53.33
21395;BME280;10858;42.714;23.180;2022-10-13T14:47:31;94776.13;;;20.41;55.30
21395;BME280;10858;42.714;23.180;2022-10-13T14:49:57;94771.50;;;20.12;56.41
21395;BME280;10858;42.714;23.180;2022-10-13T14:52:26;94771.28;;;19.99;56.51
21395;BME280;10858;42.714;23.180;2022-10-13T14:54:52;94765.31;;;19.89;57.36
21395;BME280;10858;42.714;23.180;2022-10-13T14:57:18;94771.56;;;19.67;58.60